createdAt,value
2018-06-25T00:02:04.555Z,16.10
2018-06-25T00:04:34.209Z,16.10
2018-06-25T00:07:03.236Z,16.00
2018-06-25T00:09:32.705Z,16.00
2018-06-25T00:12:02.972Z,16.00
2018-06-25T00:17:02.392Z,16.00
2018-06-25T00:19:31.287Z,16.00
2018-06-25T00:22:00.209Z,15.90
2018-06-25T00:24:30.795Z,15.90
2018-06-25T00:26:59.706Z,15.90
2018-06-25T00:29:29.912Z,15.90
2018-06-25T00:34:28.072Z,16.00
2018-06-25T00:39:27.392Z,15.90
2018-06-25T00:41:56.251Z,15.90
2018-06-25T00:44:25.254Z,15.90
2018-06-25T00:46:54.208Z,15.90
2018-06-25T00:49:23.403Z,15.90
2018-06-25T00:51:54.021Z,15.90
2018-06-25T00:55:52.186Z,15.80
2018-06-25T00:58:21.523Z,15.80
2018-06-25T01:00:52.263Z,15.70
2018-06-25T01:03:22.979Z,15.70
2018-06-25T01:05:54.066Z,15.60
2018-06-25T01:08:22.971Z,15.70
2018-06-25T01:10:53.455Z,15.70
2018-06-25T01:13:22.371Z,15.70
2018-06-25T01:15:53.126Z,15.60
2018-06-25T01:18:22.041Z,15.60
2018-06-25T01:20:51.479Z,15.70
2018-06-25T01:23:21.644Z,15.70
2018-06-25T01:25:50.771Z,15.70
2018-06-25T01:28:21.228Z,15.60
2018-06-25T01:30:50.244Z,15.50
2018-06-25T01:33:19.170Z,15.50
2018-06-25T01:35:48.590Z,15.40
2018-06-25T01:38:19.099Z,15.50
2018-06-25T01:40:48.029Z,15.50
2018-06-25T01:43:16.934Z,15.50
2018-06-25T01:45:45.958Z,15.50
2018-06-25T01:48:14.880Z,15.40
2018-06-25T01:50:45.252Z,15.30
2018-06-25T01:53:14.206Z,15.30
2018-06-25T01:55:43.227Z,15.30
2018-06-25T01:58:12.140Z,15.30
2018-06-25T02:00:57.960Z,15.30
2018-06-25T02:05:58.569Z,15.30
2018-06-25T02:08:27.502Z,15.30
2018-06-25T02:10:58.215Z,15.20
2018-06-25T02:13:27.151Z,15.10
2018-06-25T02:15:57.519Z,15.20
2018-06-25T02:18:26.513Z,15.20
2018-06-25T02:20:55.520Z,15.20
2018-06-25T02:23:24.418Z,15.20
2018-06-25T02:25:55.297Z,15.20
2018-06-25T02:28:24.200Z,15.20
2018-06-25T02:30:53.338Z,15.20
2018-06-25T02:33:22.280Z,15.20
2018-06-25T02:38:20.103Z,15.30
2018-06-25T02:40:49.140Z,15.20
2018-06-25T02:43:19.835Z,15.10
2018-06-25T02:45:48.856Z,15.10
2018-06-25T02:48:17.773Z,15.00
2018-06-25T02:50:48.353Z,15.10
2018-06-25T02:55:45.912Z,15.10
2018-06-25T02:58:14.844Z,15.10
2018-06-25T03:00:51.692Z,15.10
2018-06-25T03:03:22.232Z,15.00
2018-06-25T03:05:53.376Z,15.00
2018-06-25T03:08:22.291Z,15.00
2018-06-25T03:10:51.181Z,15.00
2018-06-25T03:13:20.180Z,15.00
2018-06-25T03:15:50.995Z,15.00
2018-06-25T03:18:19.915Z,14.90
2018-06-25T03:20:49.177Z,14.90
2018-06-25T03:23:19.464Z,14.80
2018-06-25T03:25:50.037Z,14.70
2018-06-25T03:30:48.276Z,14.90
2018-06-25T03:33:17.191Z,14.80
2018-06-25T03:35:46.623Z,14.80
2018-06-25T03:38:15.543Z,14.80
2018-06-25T03:40:44.784Z,14.90
2018-06-25T03:43:15.692Z,14.80
2018-06-25T03:45:44.691Z,14.90
2018-06-25T03:48:13.627Z,14.90
2018-06-25T03:50:43.945Z,14.90
2018-06-25T03:53:12.955Z,14.90
2018-06-25T03:55:41.878Z,14.90
2018-06-25T03:58:10.819Z,15.00
2018-06-25T04:00:40.063Z,14.90
2018-06-25T04:03:10.771Z,14.80
2018-06-25T04:05:41.207Z,14.80
2018-06-25T04:08:10.117Z,14.90
2018-06-25T04:10:39.128Z,14.90
2018-06-25T04:13:08.154Z,15.00
2018-06-25T04:15:41.010Z,15.00
2018-06-25T04:18:10.035Z,14.90
2018-06-25T04:20:40.699Z,14.90
2018-06-25T04:23:09.599Z,14.90
2018-06-25T04:25:40.501Z,14.90
2018-06-25T04:28:09.337Z,15.00
2018-06-25T04:30:38.312Z,15.00
2018-06-25T04:33:07.378Z,15.00
2018-06-25T04:35:36.513Z,15.00
2018-06-25T04:38:05.575Z,15.10
2018-06-25T04:40:35.628Z,15.10
2018-06-25T04:43:06.470Z,15.00
2018-06-25T04:45:35.360Z,15.10
2018-06-25T04:48:04.413Z,15.00
2018-06-25T04:50:35.100Z,15.00
2018-06-25T04:53:04.153Z,15.10
2018-06-25T04:55:33.444Z,15.20
2018-06-25T04:58:02.336Z,15.20
2018-06-25T05:00:31.432Z,15.30
2018-06-25T05:03:01.860Z,15.30
2018-06-25T05:05:32.541Z,15.10
2018-06-25T05:08:01.459Z,15.20
2018-06-25T05:10:30.383Z,15.20
2018-06-25T05:12:59.399Z,15.30
2018-06-25T05:18:05.787Z,15.40
2018-06-25T05:20:34.718Z,15.40
2018-06-25T05:23:04.399Z,15.40
2018-06-25T05:25:37.072Z,15.40
2018-06-25T05:28:06.279Z,15.30
2018-06-25T05:30:35.236Z,15.20
2018-06-25T05:33:04.464Z,15.10
2018-06-25T05:35:33.425Z,15.10
2018-06-25T05:38:02.676Z,15.00
2018-06-25T05:40:31.588Z,15.00
2018-06-25T05:43:01.844Z,14.80
2018-06-25T05:45:30.778Z,14.70
2018-06-25T05:47:59.821Z,14.80
2018-06-25T05:50:35.461Z,14.80
2018-06-25T05:53:04.577Z,14.90
2018-06-25T05:55:33.551Z,14.90
2018-06-25T05:58:02.463Z,15.00
2018-06-25T06:00:31.399Z,15.10
2018-06-25T06:03:02.020Z,15.20
2018-06-25T06:08:01.287Z,15.20
2018-06-25T06:10:30.211Z,15.30
2018-06-25T06:12:59.243Z,15.30
2018-06-25T06:18:05.634Z,15.20
2018-06-25T06:20:34.532Z,15.20
2018-06-25T06:23:03.508Z,15.30
2018-06-25T06:25:34.462Z,15.30
2018-06-25T06:28:03.387Z,15.30
2018-06-25T06:30:32.321Z,15.30
2018-06-25T06:33:01.828Z,15.40
2018-06-25T06:35:30.731Z,15.30
2018-06-25T06:37:59.811Z,15.30
2018-06-25T06:40:29.164Z,15.40
2018-06-25T06:42:59.719Z,15.40
2018-06-25T06:45:29.587Z,15.40
2018-06-25T06:47:58.572Z,15.40
2018-06-25T06:50:37.598Z,15.50
2018-06-25T06:53:06.555Z,15.70
2018-06-25T06:55:35.545Z,15.80
2018-06-25T06:58:04.574Z,15.80
2018-06-25T07:00:33.543Z,16.00
2018-06-25T07:03:03.959Z,16.10
2018-06-25T07:05:35.012Z,16.20
2018-06-25T07:08:04.222Z,16.30
2018-06-25T07:10:33.156Z,16.50
2018-06-25T07:13:03.344Z,16.60
2018-06-25T07:18:09.076Z,17.00
2018-06-25T07:20:38.032Z,17.00
2018-06-25T07:23:07.528Z,17.10
2018-06-25T07:25:45.192Z,17.10
2018-06-25T07:28:14.266Z,17.30
2018-06-25T07:30:43.222Z,17.50
2018-06-25T07:33:12.287Z,17.60
2018-06-25T07:35:41.326Z,17.70
2018-06-25T07:38:10.355Z,17.80
2018-06-25T07:40:39.599Z,18.00
2018-06-25T07:43:10.123Z,18.00
2018-06-25T07:45:39.099Z,17.90
2018-06-25T07:48:08.120Z,17.90
2018-06-25T07:50:40.240Z,17.90
2018-06-25T07:53:09.161Z,18.00
2018-06-25T07:55:38.367Z,18.00
2018-06-25T08:00:36.031Z,18.10
2018-06-25T08:03:06.995Z,17.90
2018-06-25T08:05:37.728Z,17.80
2018-06-25T08:08:06.889Z,17.90
2018-06-25T08:10:37.453Z,17.90
2018-06-25T08:13:06.617Z,17.90
2018-06-25T08:15:41.793Z,18.10
2018-06-25T08:18:10.815Z,18.20
2018-06-25T08:20:39.845Z,18.20
2018-06-25T08:23:08.864Z,18.10
2018-06-25T08:25:37.804Z,17.90
2018-06-25T08:28:08.056Z,17.80
2018-06-25T08:30:37.129Z,17.80
2018-06-25T08:33:06.217Z,17.80
2018-06-25T08:35:35.344Z,17.80
2018-06-25T08:38:04.437Z,17.80
2018-06-25T08:43:03.458Z,17.50
2018-06-25T08:45:32.357Z,17.30
2018-06-25T08:48:01.645Z,17.20
2018-06-25T08:50:42.010Z,17.30
2018-06-25T08:53:11.012Z,17.40
2018-06-25T08:55:39.911Z,17.40
2018-06-25T08:58:09.064Z,17.40
2018-06-25T09:00:38.494Z,17.40
2018-06-25T09:05:40.012Z,17.50
2018-06-25T09:08:10.535Z,17.50
2018-06-25T09:10:39.457Z,17.60
2018-06-25T09:13:08.496Z,17.60
2018-06-25T09:15:42.536Z,17.70
2018-06-25T09:18:11.796Z,17.60
2018-06-25T09:20:40.687Z,17.50
2018-06-25T09:23:09.767Z,17.30
2018-06-25T09:25:38.680Z,17.40
2018-06-25T09:28:08.831Z,17.70
2018-06-25T09:30:37.752Z,18.00
2018-06-25T09:33:07.091Z,18.20
2018-06-25T09:35:35.988Z,18.30
2018-06-25T09:38:05.319Z,18.40
2018-06-25T09:40:34.367Z,18.30
2018-06-25T09:43:04.521Z,18.30
2018-06-25T09:45:33.437Z,18.40
2018-06-25T09:48:02.707Z,18.40
2018-06-25T09:50:44.215Z,18.40
2018-06-25T09:55:41.854Z,18.30
2018-06-25T09:58:10.916Z,18.30
2018-06-25T10:03:21.582Z,18.40
2018-06-25T10:05:52.663Z,18.40
2018-06-25T10:08:21.684Z,18.40
2018-06-25T10:10:50.682Z,18.40
2018-06-25T10:13:19.771Z,18.60
2018-06-25T10:15:50.353Z,18.70
2018-06-25T10:18:19.328Z,18.70
2018-06-25T10:23:17.181Z,19.20
2018-06-25T10:25:46.073Z,19.20
2018-06-25T10:28:16.329Z,19.10
2018-06-25T10:33:13.827Z,19.30
2018-06-25T10:35:42.875Z,19.10
2018-06-25T10:38:11.823Z,19.00
2018-06-25T10:40:41.096Z,19.20
2018-06-25T10:43:11.637Z,19.40
2018-06-25T10:45:40.586Z,19.50
2018-06-25T10:48:09.827Z,19.50
2018-06-25T10:50:46.499Z,19.40
2018-06-25T10:53:15.415Z,19.20
2018-06-25T10:55:44.370Z,19.20
2018-06-25T10:58:13.416Z,19.40
2018-06-25T11:00:42.466Z,19.60
2018-06-25T11:03:13.123Z,19.70
2018-06-25T11:08:12.349Z,19.80
2018-06-25T11:10:41.395Z,19.70
2018-06-25T11:13:10.357Z,19.80
2018-06-25T11:15:42.888Z,19.80
2018-06-25T11:18:11.824Z,19.90
2018-06-25T11:20:41.044Z,20.10
2018-06-25T11:23:09.991Z,20.30
2018-06-25T11:25:39.061Z,20.40
2018-06-25T11:28:09.510Z,20.20
2018-06-25T11:30:38.431Z,20.00
2018-06-25T11:33:07.356Z,19.70
2018-06-25T11:35:36.911Z,19.80
2018-06-25T11:38:05.957Z,19.70
2018-06-25T11:40:35.020Z,19.70
2018-06-25T11:43:06.060Z,19.50
2018-06-25T11:45:35.315Z,19.50
2018-06-25T11:48:04.231Z,19.50
2018-06-25T11:50:46.963Z,19.60
2018-06-25T11:53:15.875Z,19.50
2018-06-25T11:55:45.125Z,19.50
2018-06-25T11:58:14.039Z,19.50
2018-06-25T12:00:44.243Z,19.50
2018-06-25T12:03:15.111Z,19.60
2018-06-25T12:05:46.694Z,19.60
2018-06-25T12:08:15.563Z,19.70
2018-06-25T12:10:44.649Z,19.80
2018-06-25T12:13:13.511Z,19.90
2018-06-25T12:18:12.736Z,20.10
2018-06-25T12:20:41.785Z,20.30
2018-06-25T12:23:10.923Z,20.40
2018-06-25T12:25:39.948Z,20.30
2018-06-25T12:28:10.335Z,20.30
2018-06-25T12:30:39.642Z,20.30
2018-06-25T12:33:08.576Z,20.30
2018-06-25T12:35:37.541Z,20.30
2018-06-25T12:40:35.391Z,20.30
2018-06-25T12:43:05.542Z,20.30
2018-06-25T12:45:34.695Z,20.40
2018-06-25T12:48:03.589Z,20.60
2018-06-25T12:50:49.338Z,20.70
2018-06-25T12:53:19.382Z,20.70
2018-06-25T12:55:48.527Z,20.80
2018-06-25T13:00:55.734Z,21.00
2018-06-25T13:03:25.860Z,21.20
2018-06-25T13:05:56.393Z,21.40
2018-06-25T13:08:25.383Z,21.60
2018-06-25T13:10:55.269Z,21.50
2018-06-25T13:15:54.885Z,21.60
2018-06-25T13:18:24.048Z,21.40
2018-06-25T13:20:52.912Z,21.50
2018-06-25T13:23:22.035Z,21.50
2018-06-25T13:28:21.660Z,21.50
2018-06-25T13:30:50.828Z,21.60
2018-06-25T13:33:19.697Z,21.40
2018-06-25T13:35:48.866Z,20.90
2018-06-25T13:38:17.897Z,20.60
2018-06-25T13:40:46.861Z,20.60
2018-06-25T13:43:17.450Z,20.70
2018-06-25T13:48:14.961Z,20.90
2018-06-25T13:50:54.352Z,21.20
2018-06-25T13:53:23.268Z,21.50
2018-06-25T13:55:53.856Z,21.70
2018-06-25T13:58:22.891Z,21.70
2018-06-25T14:00:56.571Z,21.70
2018-06-25T14:05:57.675Z,21.70
2018-06-25T14:08:27.033Z,21.70
2018-06-25T14:10:56.077Z,21.80
2018-06-25T14:13:25.019Z,21.80
2018-06-25T14:15:55.388Z,21.80
2018-06-25T14:18:24.516Z,21.70
2018-06-25T14:20:53.645Z,21.60
2018-06-25T14:23:22.936Z,21.70
2018-06-25T14:26:09.243Z,21.90
2018-06-25T14:28:39.850Z,21.90
2018-06-25T14:31:14.353Z,21.70
2018-06-25T14:33:47.899Z,21.70
2018-06-25T14:36:16.891Z,21.70
2018-06-25T14:38:45.859Z,21.70
2018-06-25T14:41:15.191Z,21.60
2018-06-25T14:43:45.384Z,21.70
2018-06-25T14:46:14.451Z,21.60
2018-06-25T14:48:43.574Z,21.60
2018-06-25T14:51:14.250Z,21.50
2018-06-25T14:53:45.680Z,21.60
2018-06-25T14:56:14.991Z,21.90
2018-06-25T14:58:44.008Z,22.10
2018-06-25T15:01:13.183Z,22.20
2018-06-25T15:03:43.399Z,22.40
2018-06-25T15:06:13.743Z,22.10
2018-06-25T15:08:42.684Z,21.80
2018-06-25T15:11:11.703Z,21.70
2018-06-25T15:13:40.900Z,21.70
2018-06-25T15:16:11.418Z,21.70
2018-06-25T15:18:40.281Z,21.70
2018-06-25T15:21:09.537Z,21.80
2018-06-25T15:23:38.408Z,21.90
2018-06-25T15:26:07.655Z,21.90
2018-06-25T15:28:36.792Z,21.90
2018-06-25T15:33:35.452Z,21.80
2018-06-25T15:36:04.498Z,21.70
2018-06-25T15:38:33.947Z,21.60
2018-06-25T15:41:02.859Z,21.70
2018-06-25T15:43:33.451Z,21.70
2018-06-25T15:46:02.411Z,21.70
2018-06-25T15:48:31.451Z,21.80
2018-06-25T15:51:02.089Z,22.00
2018-06-25T15:53:30.998Z,22.20
2018-06-25T15:56:00.343Z,22.30
2018-06-25T15:58:29.437Z,22.10
2018-06-25T16:00:58.308Z,22.20
2018-06-25T16:03:28.892Z,22.10
2018-06-25T16:06:00.568Z,22.20
2018-06-25T16:10:58.031Z,22.00
2018-06-25T16:13:27.059Z,22.10
2018-06-25T16:15:57.468Z,22.10
2018-06-25T16:18:26.669Z,22.30
2018-06-25T16:20:55.618Z,22.30
2018-06-25T16:23:24.622Z,22.10
2018-06-25T16:25:53.528Z,22.00
2018-06-25T16:28:22.838Z,21.90
2018-06-25T16:30:53.581Z,21.90
2018-06-25T16:33:22.819Z,21.90
2018-06-25T16:35:51.984Z,22.00
2018-06-25T16:38:20.884Z,22.00
2018-06-25T16:40:49.978Z,22.00
2018-06-25T16:43:20.399Z,21.90
2018-06-25T16:45:49.324Z,21.80
2018-06-25T16:48:20.482Z,21.70
2018-06-25T16:51:00.777Z,21.70
2018-06-25T16:55:58.352Z,21.60
2018-06-25T16:58:27.401Z,21.70
2018-06-25T17:00:56.792Z,21.80
2018-06-25T17:03:26.872Z,21.80
2018-06-25T17:05:57.660Z,21.90
2018-06-25T17:08:26.680Z,21.90
2018-06-25T17:10:55.969Z,21.90
2018-06-25T17:13:24.973Z,21.90
2018-06-25T17:15:55.492Z,21.90
2018-06-25T17:18:24.367Z,22.00
2018-06-25T17:20:53.332Z,22.00
2018-06-25T17:23:22.741Z,21.90
2018-06-25T17:25:51.652Z,21.90
2018-06-25T17:28:20.566Z,21.90
2018-06-25T17:30:51.027Z,21.90
2018-06-25T17:33:20.065Z,21.90
2018-06-25T17:35:49.008Z,21.90
2018-06-25T17:38:18.390Z,21.90
2018-06-25T17:40:47.284Z,21.80
2018-06-25T17:43:18.841Z,21.80
2018-06-25T17:45:54.518Z,21.70
2018-06-25T17:48:23.614Z,21.70
2018-06-25T17:51:02.845Z,21.70
2018-06-25T17:53:32.011Z,21.70
2018-06-25T17:56:00.927Z,21.60
2018-06-25T17:58:30.101Z,21.50
2018-06-25T18:00:59.001Z,21.40
2018-06-25T18:05:59.896Z,21.40
2018-06-25T18:08:28.895Z,21.50
2018-06-25T18:10:57.904Z,21.40
2018-06-25T18:13:27.184Z,21.40
2018-06-25T18:15:57.731Z,21.30
2018-06-25T18:18:26.743Z,21.20
2018-06-25T18:20:55.665Z,21.20
2018-06-25T18:23:24.948Z,21.20
2018-06-25T18:25:53.929Z,21.10
2018-06-25T18:28:22.879Z,21.10
2018-06-25T18:33:22.539Z,21.00
2018-06-25T18:35:51.456Z,21.10
2018-06-25T18:38:20.459Z,21.00
2018-06-25T18:40:49.383Z,21.00
2018-06-25T18:43:27.686Z,21.00
2018-06-25T18:45:57.552Z,20.90
2018-06-25T18:48:26.571Z,20.90
2018-06-25T18:51:05.861Z,20.80
2018-06-25T18:56:03.623Z,20.80
2018-06-25T18:58:32.583Z,20.70
2018-06-25T19:01:01.465Z,20.70
2018-06-25T19:03:32.108Z,20.60
2018-06-25T19:06:03.495Z,20.60
2018-06-25T19:11:01.063Z,20.60
2018-06-25T19:13:30.083Z,20.50
2018-06-25T19:18:30.274Z,20.50
2018-06-25T19:20:59.179Z,20.40
2018-06-25T19:23:28.302Z,20.40
2018-06-25T19:25:57.627Z,20.30
2018-06-25T19:28:26.903Z,20.30
2018-06-25T19:33:25.927Z,20.30
2018-06-25T19:35:55.742Z,20.20
2018-06-25T19:38:24.711Z,20.20
2018-06-25T19:40:54.056Z,20.20
2018-06-25T19:43:24.880Z,20.20
2018-06-25T19:45:54.160Z,20.10
2018-06-25T19:48:23.464Z,20.10
2018-06-25T19:51:06.140Z,20.10
2018-06-25T19:53:35.056Z,20.00
2018-06-25T19:56:04.150Z,20.00
2018-06-25T19:58:33.048Z,19.90
2018-06-25T20:01:02.348Z,19.90
2018-06-25T20:06:03.422Z,19.70
2018-06-25T20:08:32.354Z,19.60
2018-06-25T20:11:01.856Z,19.50
2018-06-25T20:13:30.789Z,19.50
2018-06-25T20:16:01.340Z,19.50
2018-06-25T20:18:30.738Z,19.50
2018-06-25T20:25:57.218Z,19.40
2018-06-25T20:28:26.076Z,19.40
2018-06-25T20:31:03.075Z,19.40
2018-06-25T20:33:32.775Z,19.30
2018-06-25T20:36:02.091Z,19.30
2018-06-25T20:41:07.462Z,19.20
2018-06-25T20:43:39.011Z,19.20
2018-06-25T20:46:08.052Z,19.20
2018-06-25T20:48:37.066Z,19.20
2018-06-25T20:51:09.792Z,19.10
2018-06-25T20:53:38.719Z,19.10
2018-06-25T20:56:07.754Z,19.10
2018-06-25T20:58:36.696Z,19.00
2018-06-25T21:01:05.974Z,19.00
2018-06-25T21:03:36.093Z,19.00
2018-06-25T21:06:06.827Z,18.90
2018-06-25T21:08:35.739Z,18.90
2018-06-25T21:11:05.117Z,18.90
2018-06-25T21:13:34.020Z,18.90
2018-06-25T21:18:33.454Z,18.80
2018-06-25T21:21:02.374Z,18.70
2018-06-25T21:23:31.523Z,18.70
2018-06-25T21:26:00.560Z,18.70
2018-06-25T21:28:29.507Z,18.70
2018-06-25T21:30:58.810Z,18.70
2018-06-25T21:35:58.370Z,18.70
2018-06-25T21:38:28.971Z,18.70
2018-06-25T21:40:58.088Z,18.70
2018-06-25T21:43:28.373Z,18.60
2018-06-25T21:45:57.378Z,18.60
2018-06-25T21:48:26.407Z,18.60
2018-06-25T21:51:11.354Z,18.60
2018-06-25T21:56:09.235Z,18.50
2018-06-25T21:58:38.147Z,18.40
2018-06-25T22:01:07.327Z,18.50
2018-06-25T22:03:37.968Z,18.50
2018-06-25T22:06:08.428Z,18.60
2018-06-25T22:08:37.580Z,18.60
2018-06-25T22:13:35.097Z,18.50
2018-06-25T22:16:05.588Z,18.50
2018-06-25T22:18:34.500Z,18.40
2018-06-25T22:21:04.448Z,18.30
2018-06-25T22:23:33.459Z,18.30
2018-06-25T22:26:02.467Z,18.30
2018-06-25T22:28:31.379Z,18.30
2018-06-25T22:31:00.571Z,18.30
2018-06-25T22:33:31.208Z,18.20
2018-06-25T22:36:01.793Z,18.20
2018-06-25T22:38:31.102Z,18.20
2018-06-25T22:41:00.152Z,18.20
2018-06-25T22:43:30.676Z,18.20
2018-06-25T22:45:59.591Z,18.10
2018-06-25T22:48:28.611Z,18.00
2018-06-25T22:51:12.491Z,18.10
2018-06-25T22:53:41.404Z,18.10
2018-06-25T22:56:10.481Z,18.10
2018-06-25T22:58:39.384Z,18.10
2018-06-25T23:01:08.303Z,18.10
2018-06-25T23:03:40.157Z,18.10
2018-06-25T23:06:10.747Z,18.10
2018-06-25T23:08:39.652Z,18.10
2018-06-25T23:11:08.564Z,18.00
2018-06-25T23:13:37.839Z,18.00
2018-06-25T23:18:37.145Z,17.90
2018-06-25T23:21:06.117Z,17.90
2018-06-25T23:23:35.140Z,17.90
2018-06-25T23:26:04.156Z,17.90
2018-06-25T23:28:33.352Z,17.90
2018-06-25T23:31:02.255Z,17.90
2018-06-25T23:33:32.936Z,17.90
2018-06-25T23:36:01.824Z,17.80
2018-06-25T23:38:30.823Z,17.80
2018-06-25T23:40:59.776Z,17.70
2018-06-25T23:43:30.276Z,17.70
2018-06-25T23:45:59.199Z,17.70
2018-06-25T23:48:28.264Z,17.70
2018-06-25T23:51:14.511Z,17.70
2018-06-25T23:53:43.525Z,17.70
2018-06-25T23:56:12.465Z,17.70
